createdAt,value
2018-12-13T00:00:52.198Z,102172.28
2018-12-13T00:03:22.219Z,102171.78
2018-12-13T00:05:52.029Z,102168.82
2018-12-13T00:08:21.744Z,102159.75
2018-12-13T00:10:51.642Z,102158.91
2018-12-13T00:13:21.561Z,102155.53
2018-12-13T00:15:51.364Z,102153.08
2018-12-13T00:18:21.836Z,102151.05
2018-12-13T00:20:52.377Z,102148.73
2018-12-13T00:23:22.119Z,102149.73
2018-12-13T00:25:51.947Z,102146.48
2018-12-13T00:28:21.735Z,102149.95
2018-12-13T00:30:51.464Z,102138.28
2018-12-13T00:33:21.133Z,102145.91
2018-12-13T00:35:50.916Z,102137.67
2018-12-13T00:38:20.657Z,102139.39
2018-12-13T00:40:50.420Z,102130.77
2018-12-13T00:43:20.164Z,102135.94
2018-12-13T00:45:49.972Z,102140.50
2018-12-13T00:48:20.028Z,102136.22
2018-12-13T00:50:49.864Z,102137.67
2018-12-13T00:53:19.828Z,102134.46
2018-12-13T00:55:49.644Z,102128.45
2018-12-13T00:58:19.385Z,102129.79
2018-12-13T01:00:49.150Z,102122.78
2018-12-13T01:03:19.001Z,102123.17
2018-12-13T01:05:48.766Z,102121.45
2018-12-13T01:08:18.848Z,102118.84
2018-12-13T01:10:48.728Z,102115.50
2018-12-13T01:13:18.517Z,102108.91
2018-12-13T01:15:48.458Z,102098.97
2018-12-13T01:18:18.294Z,102097.65
2018-12-13T01:20:48.121Z,102112.25
2018-12-13T01:23:18.023Z,102114.09
2018-12-13T01:25:47.857Z,102117.86
2018-12-13T01:28:17.604Z,102115.56
2018-12-13T01:30:47.310Z,102122.26
2018-12-13T01:33:17.423Z,102113.55
2018-12-13T01:35:47.096Z,102109.80
2018-12-13T01:38:16.788Z,102113.34
2018-12-13T01:40:46.535Z,102112.44
2018-12-13T01:43:16.391Z,102102.32
2018-12-13T01:45:46.181Z,102097.76
2018-12-13T01:48:15.886Z,102101.81
2018-12-13T01:50:45.632Z,102100.22
2018-12-13T01:53:15.370Z,102087.96
2018-12-13T01:55:45.309Z,102093.12
2018-12-13T01:58:15.244Z,102094.56
2018-12-13T02:00:45.219Z,102087.25
2018-12-13T02:03:15.080Z,102087.45
2018-12-13T02:05:44.800Z,102085.55
2018-12-13T02:08:14.544Z,102087.98
2018-12-13T02:10:44.473Z,102081.48
2018-12-13T02:13:14.243Z,102084.03
2018-12-13T02:15:44.147Z,102080.88
2018-12-13T02:18:13.944Z,102074.09
2018-12-13T02:20:43.852Z,102078.88
2018-12-13T02:23:13.703Z,102076.23
2018-12-13T02:25:43.357Z,102079.28
2018-12-13T02:28:13.127Z,102072.38
2018-12-13T02:30:43.026Z,102069.66
2018-12-13T02:33:12.907Z,102065.80
2018-12-13T02:35:42.652Z,102061.06
2018-12-13T02:38:12.475Z,102067.03
2018-12-13T02:40:42.197Z,102061.56
2018-12-13T02:43:11.948Z,102067.42
2018-12-13T02:45:41.735Z,102062.69
2018-12-13T02:48:11.516Z,102060.95
2018-12-13T02:50:41.198Z,102058.61
2018-12-13T02:53:10.980Z,102056.48
2018-12-13T02:55:41.561Z,102061.88
2018-12-13T02:58:11.463Z,102055.78
2018-12-13T03:00:41.326Z,102054.06
2018-12-13T03:03:11.150Z,102060.63
2018-12-13T03:05:40.920Z,102057.62
2018-12-13T03:08:10.748Z,102057.41
2018-12-13T03:10:40.405Z,102043.20
2018-12-13T03:13:10.228Z,102051.09
2018-12-13T03:15:39.954Z,102048.99
2018-12-13T03:18:10.288Z,102038.86
2018-12-13T03:20:40.075Z,102035.23
2018-12-13T03:23:09.961Z,102033.78
2018-12-13T03:25:39.699Z,102028.66
2018-12-13T03:28:09.536Z,102029.78
2018-12-13T03:30:39.289Z,102023.20
2018-12-13T03:33:09.244Z,102013.37
2018-12-13T03:35:39.068Z,102008.80
2018-12-13T03:38:08.902Z,102010.72
2018-12-13T03:40:38.749Z,102006.60
2018-12-13T03:43:08.506Z,102006.19
2018-12-13T03:45:38.501Z,102004.97
2018-12-13T03:48:08.210Z,102000.91
2018-12-13T03:50:38.146Z,102000.72
2018-12-13T03:53:07.879Z,101999.30
2018-12-13T03:55:37.744Z,102001.52
2018-12-13T03:58:07.581Z,101997.77
2018-12-13T04:00:37.294Z,101994.03
2018-12-13T04:03:07.055Z,101994.74
2018-12-13T04:05:37.009Z,101997.17
2018-12-13T04:08:07.177Z,101998.69
2018-12-13T04:10:36.980Z,101997.49
2018-12-13T04:13:06.656Z,101993.14
2018-12-13T04:15:36.833Z,101994.05
2018-12-13T04:18:06.696Z,101991.52
2018-12-13T04:20:36.455Z,101989.28
2018-12-13T04:23:06.262Z,101991.83
2018-12-13T04:25:36.052Z,101990.10
2018-12-13T04:28:05.973Z,101991.22
2018-12-13T04:30:35.764Z,101985.55
2018-12-13T04:33:05.467Z,101983.01
2018-12-13T04:35:35.710Z,101983.53
2018-12-13T04:38:05.484Z,101980.49
2018-12-13T04:40:35.225Z,101982.92
2018-12-13T04:43:05.005Z,101985.75
2018-12-13T04:45:34.950Z,101977.34
2018-12-13T04:48:04.945Z,101979.47
2018-12-13T04:50:34.672Z,101978.77
2018-12-13T04:53:04.721Z,101978.86
2018-12-13T04:55:34.405Z,101974.01
2018-12-13T04:58:04.200Z,101970.06
2018-12-13T05:00:33.888Z,101975.73
2018-12-13T05:03:04.636Z,101969.86
2018-12-13T05:05:34.372Z,101977.55
2018-12-13T05:08:04.253Z,101973.89
2018-12-13T05:10:52.376Z,101970.85
2018-12-13T05:13:22.185Z,101969.25
2018-12-13T05:15:51.956Z,101972.98
2018-12-13T05:18:21.642Z,101978.72
2018-12-13T05:20:51.288Z,101972.78
2018-12-13T05:23:20.958Z,101975.41
2018-12-13T05:25:50.707Z,101972.36
2018-12-13T05:28:20.497Z,101973.59
2018-12-13T05:30:50.277Z,101976.02
2018-12-13T05:33:20.815Z,101971.55
2018-12-13T05:35:50.597Z,101971.95
2018-12-13T05:38:20.356Z,101978.23
2018-12-13T05:40:50.090Z,101972.45
2018-12-13T05:43:19.801Z,101975.28
2018-12-13T05:45:49.572Z,101971.75
2018-12-13T05:48:19.423Z,101976.72
2018-12-13T05:50:49.160Z,101976.59
2018-12-13T05:53:18.913Z,101979.84
2018-12-13T05:55:48.876Z,101978.31
2018-12-13T05:58:18.558Z,101980.04
2018-12-13T06:00:48.289Z,101980.74
2018-12-13T06:03:18.138Z,101972.07
2018-12-13T06:05:48.071Z,101966.67
2018-12-13T06:08:17.940Z,101964.75
2018-12-13T06:10:47.736Z,101968.98
2018-12-13T06:13:17.547Z,101964.75
2018-12-13T06:18:36.253Z,101964.53
2018-12-13T06:21:11.726Z,101962.47
2018-12-13T06:23:38.038Z,101965.73
2018-12-13T06:26:07.835Z,101970.36
2018-12-13T06:28:37.608Z,101962.36
2018-12-13T06:31:07.344Z,101973.06
2018-12-13T06:33:37.313Z,101967.92
2018-12-13T06:36:06.981Z,101973.78
2018-12-13T06:38:36.694Z,101975.33
2018-12-13T06:41:06.625Z,101970.97
2018-12-13T06:43:36.299Z,101973.80
2018-12-13T06:46:06.235Z,101972.56
2018-12-13T06:48:35.889Z,101969.02
2018-12-13T06:51:05.706Z,101966.38
2018-12-13T06:53:35.760Z,101966.65
2018-12-13T06:56:05.663Z,101972.42
2018-12-13T06:58:35.359Z,101968.51
2018-12-13T07:01:05.594Z,101970.39
2018-12-13T07:03:35.264Z,101964.02
2018-12-13T07:06:05.085Z,101966.03
2018-12-13T07:08:34.991Z,101970.91
2018-12-13T07:11:05.375Z,101966.65
2018-12-13T07:13:35.141Z,101972.81
2018-12-13T07:16:06.023Z,101972.08
2018-12-13T07:18:35.776Z,101972.13
2018-12-13T07:21:05.661Z,101976.64
2018-12-13T07:23:35.320Z,101982.72
2018-12-13T07:26:05.129Z,101986.11
2018-12-13T07:28:34.958Z,101988.06
2018-12-13T07:31:09.602Z,101993.39
2018-12-13T07:33:39.276Z,101995.00
2018-12-13T07:36:09.036Z,101996.78
2018-12-13T07:38:38.874Z,101995.94
2018-12-13T07:41:08.664Z,102003.17
2018-12-13T07:43:38.332Z,101997.27
2018-12-13T07:46:07.997Z,102004.39
2018-12-13T07:48:37.639Z,101992.94
2018-12-13T07:51:07.379Z,101999.60
2018-12-13T07:53:37.154Z,101995.23
2018-12-13T07:56:06.921Z,101997.40
2018-12-13T07:58:36.498Z,101994.88
2018-12-13T08:01:06.569Z,102009.54
2018-12-13T08:03:36.264Z,102002.98
2018-12-13T08:06:08.305Z,102003.59
2018-12-13T08:08:37.995Z,102005.57
2018-12-13T08:11:08.099Z,102005.38
2018-12-13T08:13:37.860Z,102002.58
2018-12-13T08:16:07.629Z,102012.81
2018-12-13T08:18:37.383Z,102004.34
2018-12-13T08:21:07.057Z,102009.69
2018-12-13T08:23:36.797Z,102011.43
2018-12-13T08:26:06.712Z,102007.44
2018-12-13T08:28:36.612Z,102003.91
2018-12-13T08:31:06.263Z,102008.80
2018-12-13T08:33:36.137Z,102009.17
2018-12-13T08:36:06.030Z,102013.23
2018-12-13T08:38:35.827Z,102006.86
2018-12-13T08:41:05.466Z,102012.31
2018-12-13T08:43:35.380Z,102015.03
2018-12-13T08:46:06.322Z,102017.78
2018-12-13T08:48:36.811Z,102021.09
2018-12-13T08:51:06.473Z,102014.22
2018-12-13T08:53:36.299Z,102012.80
2018-12-13T08:56:06.083Z,102009.91
2018-12-13T08:58:35.711Z,102004.94
2018-12-13T09:01:05.759Z,102005.36
2018-12-13T09:03:36.053Z,102008.20
2018-12-13T09:06:06.894Z,102002.67
2018-12-13T09:08:36.628Z,102004.69
2018-12-13T09:11:06.383Z,102006.16
2018-12-13T09:13:36.099Z,102012.95
2018-12-13T09:16:05.938Z,102014.28
2018-12-13T09:18:35.883Z,102004.10
2018-12-13T09:21:05.521Z,102016.84
2018-12-13T09:23:42.221Z,102010.67
2018-12-13T09:26:11.941Z,102004.20
2018-12-13T09:28:41.875Z,102000.38
2018-12-13T09:31:11.536Z,101996.63
2018-12-13T09:33:41.262Z,101999.14
2018-12-13T09:36:11.069Z,102004.00
2018-12-13T09:38:41.009Z,102001.83
2018-12-13T09:41:10.785Z,102004.95
2018-12-13T09:43:40.604Z,101998.78
2018-12-13T09:46:10.571Z,102003.77
2018-12-13T09:48:40.367Z,101995.46
2018-12-13T09:51:10.051Z,101993.53
2018-12-13T09:53:39.864Z,102001.34
2018-12-13T09:56:09.824Z,101990.51
2018-12-13T09:58:39.791Z,101997.48
2018-12-13T10:01:09.521Z,101990.79
2018-12-13T10:03:39.178Z,101993.34
2018-12-13T10:06:09.349Z,101986.76
2018-12-13T10:08:39.052Z,101979.97
2018-12-13T10:11:08.744Z,101981.50
2018-12-13T10:13:38.491Z,101976.11
2018-12-13T10:16:08.176Z,101978.44
2018-12-13T10:18:37.829Z,101975.52
2018-12-13T10:21:07.417Z,101970.47
2018-12-13T10:23:37.106Z,101966.80
2018-12-13T10:26:06.947Z,101957.08
2018-12-13T10:28:36.743Z,101962.09
2018-12-13T10:31:06.366Z,101953.22
2018-12-13T10:33:36.030Z,101959.38
2018-12-13T10:36:05.909Z,101955.72
2018-12-13T10:38:35.693Z,101955.28
2018-12-13T10:41:05.707Z,101952.44
2018-12-13T10:43:35.405Z,101955.66
2018-12-13T10:46:05.172Z,101947.17
2018-12-13T10:48:34.957Z,101940.90
2018-12-13T10:51:05.130Z,101942.20
2018-12-13T10:53:35.275Z,101938.04
2018-12-13T10:56:05.103Z,101940.28
2018-12-13T10:58:35.090Z,101936.02
2018-12-13T11:01:09.793Z,101935.98
2018-12-13T11:03:39.680Z,101934.72
2018-12-13T11:06:09.415Z,101930.17
2018-12-13T11:08:39.527Z,101929.84
2018-12-13T11:11:09.229Z,101924.30
2018-12-13T11:13:39.015Z,101916.65
2018-12-13T11:16:09.011Z,101916.05
2018-12-13T11:18:39.521Z,101916.12
2018-12-13T11:21:09.924Z,101924.09
2018-12-13T11:23:39.777Z,101917.80
2018-12-13T11:26:09.615Z,101914.80
2018-12-13T11:29:57.405Z,101910.03
2018-12-13T11:32:27.252Z,101907.69
2018-12-13T11:34:57.049Z,101912.84
2018-12-13T11:37:26.785Z,101912.42
2018-12-13T11:39:56.639Z,101907.53
2018-12-13T11:42:26.361Z,101903.26
2018-12-13T11:44:56.229Z,101895.03
2018-12-13T11:47:26.124Z,101897.28
2018-12-13T11:49:56.186Z,101885.20
2018-12-13T11:52:25.945Z,101888.66
2018-12-13T11:54:56.577Z,101886.53
2018-12-13T11:57:26.728Z,101891.20
2018-12-13T11:59:57.245Z,101894.61
2018-12-13T12:02:26.968Z,101889.77
2018-12-13T12:04:56.888Z,101886.35
2018-12-13T12:07:26.577Z,101886.82
2018-12-13T12:09:56.475Z,101884.25
2018-12-13T12:12:26.333Z,101882.94
2018-12-13T12:14:56.264Z,101873.44
2018-12-13T12:17:26.007Z,101870.47
2018-12-13T12:19:56.103Z,101873.00
2018-12-13T12:22:25.859Z,101876.53
2018-12-13T12:24:55.883Z,101879.48
2018-12-13T12:27:25.760Z,101876.69
2018-12-13T12:29:55.738Z,101868.02
2018-12-13T12:32:25.777Z,101861.03
2018-12-13T12:34:55.688Z,101869.88
2018-12-13T12:37:25.658Z,101863.41
2018-12-13T12:39:56.228Z,101861.38
2018-12-13T12:42:25.936Z,101855.23
2018-12-13T12:44:55.951Z,101864.35
2018-12-13T12:47:25.884Z,101854.63
2018-12-13T12:49:55.768Z,101850.55
2018-12-13T12:52:25.537Z,101856.33
2018-12-13T12:54:55.472Z,101848.20
2018-12-13T12:57:25.531Z,101845.62
2018-12-13T12:59:55.880Z,101839.77
2018-12-13T13:02:25.830Z,101841.78
2018-12-13T13:04:55.613Z,101843.55
2018-12-13T13:07:25.733Z,101845.23
2018-12-13T13:09:55.645Z,101840.58
2018-12-13T13:12:25.392Z,101832.41
2018-12-13T13:14:55.212Z,101839.69
2018-12-13T13:17:25.092Z,101825.17
2018-12-13T13:19:54.928Z,101825.98
2018-12-13T13:22:24.586Z,101819.26
2018-12-13T13:24:54.360Z,101819.98
2018-12-13T13:27:24.273Z,101823.97
2018-12-13T13:29:54.117Z,101816.56
2018-12-13T13:32:23.920Z,101816.84
2018-12-13T13:34:53.892Z,101806.27
2018-12-13T13:37:23.654Z,101816.75
2018-12-13T13:39:53.545Z,101818.09
2018-12-13T13:42:23.589Z,101818.01
2018-12-13T13:44:57.501Z,101814.24
2018-12-13T13:47:27.472Z,101806.17
2018-12-13T13:49:57.225Z,101810.81
2018-12-13T13:52:27.072Z,101811.15
2018-12-13T13:54:57.256Z,101811.26
2018-12-13T13:57:27.288Z,101820.16
2018-12-13T13:59:57.167Z,101816.67
2018-12-13T14:02:26.961Z,101817.13
2018-12-13T14:04:56.720Z,101814.16
2018-12-13T14:07:26.593Z,101815.59
2018-12-13T14:09:56.329Z,101821.94
2018-12-13T14:12:26.260Z,101824.25
2018-12-13T14:14:56.334Z,101822.94
2018-12-13T14:17:25.989Z,101821.61
2018-12-13T14:19:55.678Z,101821.72
2018-12-13T14:22:25.481Z,101829.30
2018-12-13T14:24:55.261Z,101831.28
2018-12-13T14:27:25.260Z,101828.30
2018-12-13T14:29:55.004Z,101829.73
2018-12-13T14:32:24.642Z,101831.54
2018-12-13T14:34:57.438Z,101826.06
2018-12-13T14:37:26.393Z,101831.41
2018-12-13T14:39:56.556Z,101826.96
2018-12-13T14:42:26.899Z,101827.56
2018-12-13T14:44:56.885Z,101830.70
2018-12-13T14:47:26.657Z,101833.58
2018-12-13T14:49:56.617Z,101835.79
2018-12-13T14:52:26.464Z,101841.98
2018-12-13T14:54:56.494Z,101839.06
2018-12-13T14:57:26.401Z,101840.02
2018-12-13T14:59:56.364Z,101843.94
2018-12-13T15:02:26.181Z,101842.26
2018-12-13T15:04:56.206Z,101836.56
2018-12-13T15:07:25.972Z,101839.20
2018-12-13T15:09:55.720Z,101843.68
2018-12-13T15:12:25.460Z,101834.75
2018-12-13T15:14:55.226Z,101839.59
2018-12-13T15:17:25.231Z,101849.63
2018-12-13T15:19:55.083Z,101843.28
2018-12-13T15:22:24.765Z,101844.70
2018-12-13T15:24:54.670Z,101838.20
2018-12-13T15:27:24.552Z,101841.94
2018-12-13T15:29:54.280Z,101840.05
2018-12-13T15:32:24.757Z,101837.34
2018-12-13T15:34:54.477Z,101846.36
2018-12-13T15:37:24.152Z,101844.34
2018-12-13T15:39:57.226Z,101836.55
2018-12-13T15:42:26.029Z,101852.05
2018-12-13T15:44:55.763Z,101852.26
2018-12-13T15:47:25.548Z,101852.04
2018-12-13T15:49:55.721Z,101846.39
2018-12-13T15:52:25.536Z,101850.15
2018-12-13T15:54:55.420Z,101849.42
2018-12-13T15:57:25.262Z,101857.13
2018-12-13T15:59:54.989Z,101857.70
2018-12-13T16:02:24.824Z,101857.70
2018-12-13T16:04:54.557Z,101856.00
2018-12-13T16:07:24.380Z,101853.86
2018-12-13T16:09:54.152Z,101860.52
2018-12-13T16:12:24.019Z,101851.44
2018-12-13T16:14:53.844Z,101855.89
2018-12-13T16:17:23.758Z,101849.05
2018-12-13T16:19:53.608Z,101852.15
2018-12-13T16:22:23.420Z,101857.03
2018-12-13T16:24:53.162Z,101852.19
2018-12-13T16:27:22.925Z,101855.55
2018-12-13T16:29:52.963Z,101857.32
2018-12-13T16:32:22.853Z,101860.98
2018-12-13T16:34:52.656Z,101860.18
2018-12-13T16:37:22.557Z,101859.97
2018-12-13T16:39:52.528Z,101860.58
2018-12-13T16:42:22.432Z,101858.14
2018-12-13T16:44:54.178Z,101863.31
2018-12-13T16:47:23.887Z,101857.15
2018-12-13T16:49:53.544Z,101860.37
2018-12-13T16:52:23.445Z,101856.44
2018-12-13T16:54:53.193Z,101860.10
2018-12-13T16:57:23.032Z,101861.80
2018-12-13T16:59:52.941Z,101853.61
2018-12-13T17:02:22.726Z,101847.55
2018-12-13T17:04:52.688Z,101852.70
2018-12-13T17:07:23.207Z,101849.78
2018-12-13T17:09:53.049Z,101851.48
2018-12-13T17:12:22.961Z,101852.61
2018-12-13T17:14:52.872Z,101848.67
2018-12-13T17:17:22.900Z,101852.00
2018-12-13T17:19:52.761Z,101854.63
2018-12-13T17:22:22.713Z,101853.23
2018-12-13T17:24:53.400Z,101854.31
2018-12-13T17:27:23.220Z,101851.47
2018-12-13T17:29:52.942Z,101851.19
2018-12-13T17:32:22.852Z,101844.63
2018-12-13T17:34:52.570Z,101849.64
2018-12-13T17:37:22.300Z,101850.48
2018-12-13T17:39:52.030Z,101853.22
2018-12-13T17:42:22.396Z,101850.28
2018-12-13T17:44:52.380Z,101850.20
2018-12-13T17:47:22.134Z,101852.33
2018-12-13T17:49:52.052Z,101856.69
2018-12-13T17:52:21.862Z,101861.03
2018-12-13T17:54:52.549Z,101862.95
2018-12-13T17:57:22.333Z,101859.30
2018-12-13T17:59:52.216Z,101850.20
2018-12-13T18:02:22.041Z,101851.22
2018-12-13T18:07:41.169Z,101853.04
2018-12-13T18:10:12.388Z,101853.14
2018-12-13T18:12:42.132Z,101863.66
2018-12-13T18:15:12.033Z,101867.48
2018-12-13T18:17:41.862Z,101863.45
2018-12-13T18:20:11.953Z,101854.63
2018-12-13T18:22:41.950Z,101854.95
2018-12-13T18:25:12.025Z,101860.39
2018-12-13T18:27:41.947Z,101858.59
2018-12-13T18:30:12.212Z,101855.24
2018-12-13T18:32:41.953Z,101855.47
2018-12-13T18:35:11.771Z,101850.27
2018-12-13T18:37:41.612Z,101853.28
2018-12-13T18:40:11.726Z,101847.75
2018-12-13T18:42:41.569Z,101861.06
2018-12-13T18:45:11.540Z,101855.02
2018-12-13T18:47:41.329Z,101861.08
2018-12-13T18:50:11.219Z,101860.05
2018-12-13T18:52:40.957Z,101853.75
2018-12-13T18:55:10.741Z,101862.66
2018-12-13T18:57:40.474Z,101861.47
2018-12-13T19:00:11.042Z,101860.84
2018-12-13T19:02:40.867Z,101863.95
2018-12-13T19:05:10.696Z,101864.84
2018-12-13T19:07:40.574Z,101863.92
2018-12-13T19:10:10.468Z,101867.89
2018-12-13T19:12:40.354Z,101871.08
2018-12-13T19:15:10.284Z,101876.27
2018-12-13T19:17:40.116Z,101869.80
2018-12-13T19:20:10.511Z,101875.88
2018-12-13T19:22:40.454Z,101876.30
2018-12-13T19:25:11.557Z,101883.40
2018-12-13T19:27:41.599Z,101884.69
2018-12-13T19:30:11.705Z,101884.61
2018-12-13T19:32:41.643Z,101890.35
2018-12-13T19:35:11.622Z,101898.37
2018-12-13T19:37:41.708Z,101898.48
2018-12-13T19:40:11.661Z,101898.87
2018-12-13T19:42:41.580Z,101901.82
2018-12-13T19:45:11.406Z,101902.81
2018-12-13T19:47:41.084Z,101902.23
2018-12-13T19:50:10.801Z,101900.11
2018-12-13T19:52:40.720Z,101900.72
2018-12-13T19:55:10.558Z,101900.73
2018-12-13T19:57:40.517Z,101893.45
2018-12-13T20:00:10.966Z,101903.28
2018-12-13T20:02:40.744Z,101902.27
2018-12-13T20:05:10.689Z,101898.23
2018-12-13T20:07:40.438Z,101902.37
2018-12-13T20:10:11.000Z,101901.38
2018-12-13T20:12:40.826Z,101904.70
2018-12-13T20:15:10.924Z,101903.48
2018-12-13T20:17:40.732Z,101910.06
2018-12-13T20:20:10.750Z,101919.39
2018-12-13T20:22:40.677Z,101920.59
2018-12-13T20:25:10.862Z,101923.34
2018-12-13T20:27:40.606Z,101927.17
2018-12-13T20:30:11.482Z,101922.33
2018-12-13T20:32:41.250Z,101935.14
2018-12-13T20:35:11.352Z,101936.08
2018-12-13T20:37:41.295Z,101931.33
2018-12-13T20:40:11.131Z,101928.58
2018-12-13T20:42:41.090Z,101929.89
2018-12-13T20:45:11.483Z,101934.33
2018-12-13T20:47:41.340Z,101943.36
2018-12-13T20:50:11.381Z,101943.45
2018-12-13T20:52:41.279Z,101950.62
2018-12-13T20:55:11.151Z,101956.79
2018-12-13T20:57:40.858Z,101945.45
2018-12-13T21:00:12.531Z,101951.53
2018-12-13T21:02:43.223Z,101956.09
2018-12-13T21:05:13.129Z,101963.73
2018-12-13T21:07:42.956Z,101965.03
2018-12-13T21:10:12.825Z,101960.59
2018-12-13T21:12:42.617Z,101957.34
2018-12-13T21:15:12.804Z,101954.01
2018-12-13T21:17:42.691Z,101950.64
2018-12-13T21:20:12.513Z,101957.22
2018-12-13T21:22:42.785Z,101956.02
2018-12-13T21:25:12.642Z,101954.59
2018-12-13T21:27:42.492Z,101957.61
2018-12-13T21:30:12.566Z,101948.33
2018-12-13T21:32:43.040Z,101945.99
2018-12-13T21:35:12.868Z,101943.50
2018-12-13T21:37:42.601Z,101938.62
2018-12-13T21:40:12.554Z,101935.28
2018-12-13T21:42:42.352Z,101944.06
2018-12-13T21:45:12.376Z,101937.98
2018-12-13T21:47:42.160Z,101939.22
2018-12-13T21:50:11.978Z,101939.64
2018-12-13T21:52:41.964Z,101935.41
2018-12-13T21:55:11.869Z,101941.24
2018-12-13T21:57:42.185Z,101939.45
2018-12-13T22:00:13.042Z,101943.50
2018-12-13T22:02:43.956Z,101942.69
2018-12-13T22:05:13.804Z,101950.09
2018-12-13T22:07:43.567Z,101950.70
2018-12-13T22:10:13.593Z,101949.19
2018-12-13T22:12:43.856Z,101948.57
2018-12-13T22:15:14.316Z,101954.52
2018-12-13T22:17:44.208Z,101955.84
2018-12-13T22:20:15.093Z,101959.78
2018-12-13T22:22:44.899Z,101956.16
2018-12-13T22:25:14.920Z,101954.44
2018-12-13T22:27:44.736Z,101950.49
2018-12-13T22:30:15.500Z,101952.80
2018-12-13T22:32:45.232Z,101948.85
2018-12-13T22:35:15.081Z,101950.58
2018-12-13T22:37:44.924Z,101945.52
2018-12-13T22:40:15.030Z,101949.44
2018-12-13T22:42:44.882Z,101949.73
2018-12-13T22:45:15.319Z,101942.27
2018-12-13T22:47:45.178Z,101946.61
2018-12-13T22:50:15.188Z,101949.66
2018-12-13T22:52:45.171Z,101943.44
2018-12-13T22:55:15.114Z,101950.16
2018-12-13T22:57:44.905Z,101942.07
2018-12-13T23:00:14.845Z,101943.71
2018-12-13T23:02:44.698Z,101941.36
2018-12-13T23:05:14.612Z,101945.53
2018-12-13T23:07:44.316Z,101940.88
2018-12-13T23:10:14.105Z,101947.45
2018-12-13T23:12:44.593Z,101952.63
2018-12-13T23:15:14.629Z,101947.67
2018-12-13T23:17:44.420Z,101952.11
2018-12-13T23:20:14.761Z,101945.72
2018-12-13T23:22:44.647Z,101944.91
2018-12-13T23:25:14.441Z,101944.91
2018-12-13T23:27:44.269Z,101947.12
2018-12-13T23:30:14.189Z,101950.49
2018-12-13T23:32:44.018Z,101943.31
2018-12-13T23:35:14.062Z,101941.99
2018-12-13T23:37:44.679Z,101940.69
2018-12-13T23:40:14.660Z,101941.30
2018-12-13T23:42:44.418Z,101942.62
2018-12-13T23:45:14.453Z,101940.88
2018-12-13T23:47:44.215Z,101941.45
2018-12-13T23:50:14.299Z,101937.01
2018-12-13T23:52:44.187Z,101936.88
2018-12-13T23:55:13.888Z,101934.38
2018-12-13T23:57:43.812Z,101932.71
